createdAt,value
2022-12-12T00:01:29.683Z,17.33
2022-12-12T00:03:57.572Z,17.45
2022-12-12T00:06:25.281Z,17.20
2022-12-12T00:08:52.896Z,18.00
2022-12-12T00:11:21.719Z,17.65
2022-12-12T00:13:50.599Z,17.13
2022-12-12T00:16:17.730Z,17.13
2022-12-12T00:18:44.935Z,17.83
2022-12-12T00:21:25.812Z,18.13
2022-12-12T00:23:53.203Z,17.17
2022-12-12T00:26:22.316Z,17.90
2022-12-12T00:28:49.918Z,17.50
2022-12-12T00:31:17.760Z,17.77
2022-12-12T00:33:46.652Z,17.63
2022-12-12T00:36:13.742Z,19.13
2022-12-12T00:38:40.606Z,18.35
2022-12-12T00:41:07.538Z,18.17
2022-12-12T00:43:34.796Z,18.38
2022-12-12T00:46:02.749Z,19.38
2022-12-12T00:48:30.287Z,19.25
2022-12-12T00:50:57.731Z,19.13
2022-12-12T00:53:24.857Z,18.58
2022-12-12T00:55:59.058Z,17.95
2022-12-12T00:58:27.175Z,18.55
2022-12-12T01:00:54.418Z,18.25
2022-12-12T01:03:22.146Z,17.92
2022-12-12T01:05:49.446Z,18.67
2022-12-12T01:08:16.375Z,18.40
2022-12-12T01:10:43.280Z,18.38
2022-12-12T01:13:10.249Z,18.63
2022-12-12T01:15:37.083Z,18.50
2022-12-12T01:18:03.948Z,18.85
2022-12-12T01:20:31.220Z,18.35
2022-12-12T01:22:58.067Z,19.35
2022-12-12T01:25:25.036Z,18.85
2022-12-12T01:27:51.915Z,18.05
2022-12-12T01:30:22.393Z,18.95
2022-12-12T01:32:49.767Z,18.83
2022-12-12T01:35:17.492Z,19.45
2022-12-12T01:37:44.630Z,19.58
2022-12-12T01:40:22.537Z,19.33
2022-12-12T01:42:50.757Z,19.40
2022-12-12T01:45:58.668Z,19.48
2022-12-12T01:48:55.430Z,19.17
2022-12-12T01:51:26.223Z,19.30
2022-12-12T01:54:05.780Z,18.92
2022-12-12T01:56:36.018Z,20.42
2022-12-12T01:59:08.133Z,19.20
2022-12-12T02:01:35.999Z,18.73
2022-12-12T02:04:03.934Z,19.55
2022-12-12T02:06:31.438Z,19.67
2022-12-12T02:09:04.526Z,19.25
2022-12-12T02:11:33.371Z,20.02
2022-12-12T02:14:00.699Z,19.90
2022-12-12T02:16:48.140Z,18.83
2022-12-12T02:19:41.434Z,19.90
2022-12-12T02:22:34.873Z,19.55
2022-12-12T02:26:00.586Z,19.60
2022-12-12T02:29:00.092Z,19.25
2022-12-12T02:31:52.526Z,20.80
2022-12-12T02:34:31.067Z,19.70
2022-12-12T02:37:22.176Z,19.92
2022-12-12T02:40:21.657Z,20.38
2022-12-12T02:43:09.590Z,19.55
2022-12-12T02:46:13.275Z,19.38
2022-12-12T02:48:50.899Z,19.65
2022-12-12T02:51:19.577Z,19.20
2022-12-12T02:53:46.586Z,20.58
2022-12-12T02:56:51.071Z,20.02
2022-12-12T02:59:30.287Z,19.38
2022-12-12T03:02:45.365Z,20.38
2022-12-12T03:05:49.413Z,19.98
2022-12-12T03:08:56.558Z,20.08
2022-12-12T03:11:52.615Z,19.63
2022-12-12T03:14:41.356Z,19.20
2022-12-12T03:17:38.945Z,20.23
2022-12-12T03:20:36.902Z,20.42
2022-12-12T03:23:17.764Z,20.67
2022-12-12T03:25:53.741Z,20.38
2022-12-12T03:28:47.690Z,20.00
2022-12-12T03:31:20.104Z,19.00
2022-12-12T03:34:17.733Z,19.20
2022-12-12T03:37:08.026Z,20.88
2022-12-12T03:39:40.582Z,19.77
2022-12-12T03:42:24.724Z,19.85
2022-12-12T03:45:04.028Z,20.23
2022-12-12T03:47:45.542Z,20.60
2022-12-12T03:50:25.115Z,20.08
2022-12-12T03:53:15.994Z,19.52
2022-12-12T03:56:02.567Z,20.50
2022-12-12T03:58:49.012Z,21.05
2022-12-12T04:01:24.598Z,18.65
2022-12-12T04:04:13.400Z,19.17
2022-12-12T04:06:54.588Z,20.30
2022-12-12T04:09:42.618Z,19.65
2022-12-12T04:13:03.335Z,19.77
2022-12-12T04:16:03.493Z,20.27
2022-12-12T04:18:48.988Z,20.40
2022-12-12T04:21:49.062Z,19.35
2022-12-12T04:24:24.830Z,18.77
2022-12-12T04:27:00.408Z,20.63
2022-12-12T04:29:53.251Z,20.80
2022-12-12T04:32:29.694Z,20.25
2022-12-12T04:35:09.877Z,19.23
2022-12-12T04:37:49.113Z,19.85
2022-12-12T04:40:24.983Z,20.10
2022-12-12T04:43:05.929Z,19.23
2022-12-12T04:45:41.745Z,18.65
2022-12-12T04:48:14.620Z,20.50
2022-12-12T04:50:48.719Z,19.90
2022-12-12T04:53:23.722Z,19.65
2022-12-12T04:55:58.723Z,19.67
2022-12-12T04:58:27.211Z,20.48
2022-12-12T05:01:16.335Z,20.15
2022-12-12T05:03:55.428Z,20.52
2022-12-12T05:06:38.802Z,19.73
2022-12-12T05:09:07.422Z,19.73
2022-12-12T05:11:35.428Z,18.98
2022-12-12T05:14:02.362Z,19.63
2022-12-12T05:16:48.585Z,20.98
2022-12-12T05:19:15.726Z,19.00
2022-12-12T05:21:42.525Z,19.60
2022-12-12T05:24:09.306Z,19.73
2022-12-12T05:26:36.738Z,19.75
2022-12-12T05:29:07.561Z,19.15
2022-12-12T05:31:35.614Z,19.92
2022-12-12T05:34:03.575Z,20.50
2022-12-12T05:36:30.643Z,19.73
2022-12-12T05:38:57.492Z,20.38
2022-12-12T05:41:24.403Z,19.98
2022-12-12T05:43:52.128Z,20.98
2022-12-12T05:46:18.937Z,20.50
2022-12-12T05:48:50.429Z,18.73
2022-12-12T05:51:20.560Z,19.98
2022-12-12T05:53:47.628Z,20.02
2022-12-12T05:56:14.486Z,20.05
2022-12-12T05:58:41.629Z,20.98
2022-12-12T06:01:09.194Z,21.83
2022-12-12T06:03:36.192Z,20.33
2022-12-12T06:06:03.828Z,19.83
2022-12-12T06:08:30.858Z,21.58
2022-12-12T06:10:57.723Z,21.63
2022-12-12T06:13:24.636Z,20.30
2022-12-12T06:15:51.480Z,19.77
2022-12-12T06:18:18.317Z,20.05
2022-12-12T06:20:45.255Z,19.67
2022-12-12T06:23:12.072Z,20.02
2022-12-12T06:25:39.334Z,20.33
2022-12-12T06:28:06.467Z,19.75
2022-12-12T06:30:33.927Z,20.17
2022-12-12T06:33:00.882Z,19.67
2022-12-12T06:35:27.683Z,20.30
2022-12-12T06:37:54.651Z,19.83
2022-12-12T06:40:21.528Z,19.88
2022-12-12T06:42:49.076Z,20.52
2022-12-12T06:45:17.252Z,20.40
2022-12-12T06:47:44.603Z,20.00
2022-12-12T06:50:11.981Z,20.52
2022-12-12T06:52:38.873Z,19.98
2022-12-12T06:55:06.413Z,19.77
2022-12-12T06:57:33.691Z,20.27
2022-12-12T07:00:00.770Z,19.38
2022-12-12T07:02:29.996Z,20.25
2022-12-12T07:04:58.319Z,20.52
2022-12-12T07:07:25.798Z,21.08
2022-12-12T07:09:52.622Z,20.67
2022-12-12T07:12:19.426Z,20.17
2022-12-12T07:14:46.323Z,20.08
2022-12-12T07:17:13.090Z,20.38
2022-12-12T07:19:39.862Z,21.25
2022-12-12T07:22:10.112Z,20.17
2022-12-12T07:24:38.018Z,20.60
2022-12-12T07:27:06.476Z,20.92
2022-12-12T07:29:33.902Z,19.60
2022-12-12T07:32:00.894Z,21.08
2022-12-12T07:34:29.601Z,20.15
2022-12-12T07:37:02.590Z,19.95
2022-12-12T07:39:32.597Z,20.27
2022-12-12T07:41:59.859Z,20.25
2022-12-12T07:44:26.851Z,21.58
2022-12-12T07:46:53.791Z,19.80
2022-12-12T07:49:20.630Z,19.70
2022-12-12T07:51:49.344Z,20.83
2022-12-12T07:54:17.078Z,19.05
2022-12-12T07:56:43.990Z,20.20
2022-12-12T07:59:11.877Z,21.65
2022-12-12T08:01:39.162Z,20.55
2022-12-12T08:04:06.427Z,20.52
2022-12-12T08:06:33.237Z,21.65
2022-12-12T08:09:00.034Z,20.52
2022-12-12T08:11:26.922Z,23.08
2022-12-12T08:13:54.242Z,21.50
2022-12-12T08:16:25.661Z,22.27
2022-12-12T08:18:56.115Z,23.40
2022-12-12T08:21:26.155Z,22.33
2022-12-12T08:24:02.472Z,21.67
2022-12-12T08:26:32.069Z,21.45
2022-12-12T08:28:59.412Z,23.25
2022-12-12T08:31:27.853Z,22.80
2022-12-12T08:33:55.268Z,22.48
2022-12-12T08:36:31.009Z,20.88
2022-12-12T08:39:04.085Z,22.33
2022-12-12T08:41:30.977Z,21.58
2022-12-12T08:43:57.926Z,22.33
2022-12-12T08:46:24.999Z,22.70
2022-12-12T08:48:51.994Z,21.02
2022-12-12T08:51:19.395Z,22.52
2022-12-12T08:53:48.474Z,22.10
2022-12-12T08:56:17.337Z,22.45
2022-12-12T08:58:44.534Z,21.60
2022-12-12T09:01:14.148Z,21.92
2022-12-12T09:03:40.947Z,22.45
2022-12-12T09:06:10.147Z,20.83
2022-12-12T09:08:38.610Z,21.48
2022-12-12T09:11:06.305Z,22.65
2022-12-12T09:13:34.268Z,22.65
2022-12-12T09:16:01.429Z,22.95
2022-12-12T09:18:28.320Z,21.60
2022-12-12T09:20:57.652Z,22.15
2022-12-12T09:23:26.637Z,21.70
2022-12-12T09:25:54.728Z,22.10
2022-12-12T09:28:25.477Z,22.83
2022-12-12T09:30:52.606Z,21.65
2022-12-12T09:33:20.137Z,21.70
2022-12-12T09:35:47.080Z,23.92
2022-12-12T09:38:15.215Z,22.30
2022-12-12T09:41:09.239Z,21.80
2022-12-12T09:43:54.935Z,20.88
2022-12-12T09:46:44.018Z,22.67
2022-12-12T09:49:43.070Z,21.23
2022-12-12T09:52:26.427Z,22.80
2022-12-12T09:55:06.179Z,21.52
2022-12-12T09:57:49.969Z,20.75
2022-12-12T10:00:18.726Z,20.92
2022-12-12T10:03:10.838Z,20.48
2022-12-12T10:06:28.186Z,20.70
2022-12-12T10:09:24.103Z,21.05
2022-12-12T10:11:54.975Z,20.63
2022-12-12T10:14:40.512Z,21.45
2022-12-12T10:17:20.342Z,21.58
2022-12-12T10:19:55.958Z,21.52
2022-12-12T10:22:40.270Z,21.45
2022-12-12T10:25:43.969Z,22.08
2022-12-12T10:28:19.763Z,20.08
2022-12-12T10:31:15.368Z,20.58
2022-12-12T10:34:03.230Z,18.75
2022-12-12T10:36:58.385Z,20.88
2022-12-12T10:39:37.401Z,18.50
2022-12-12T10:42:25.906Z,19.73
2022-12-12T10:45:21.673Z,19.20
2022-12-12T10:47:49.567Z,19.13
2022-12-12T10:50:28.626Z,19.23
2022-12-12T10:52:55.487Z,19.52
2022-12-12T10:55:38.759Z,19.80
2022-12-12T10:58:06.991Z,18.98
2022-12-12T11:00:38.286Z,19.95
2022-12-12T11:03:32.053Z,20.13
2022-12-12T11:06:07.477Z,19.30
2022-12-12T11:08:37.103Z,19.52
2022-12-12T11:11:19.149Z,18.83
2022-12-12T11:14:00.333Z,18.63
2022-12-12T11:16:43.063Z,18.23
2022-12-12T11:19:19.883Z,17.20
2022-12-12T11:21:48.223Z,18.40
2022-12-12T11:24:20.041Z,17.77
2022-12-12T11:27:00.476Z,17.65
2022-12-12T11:29:44.171Z,19.30
2022-12-12T11:32:32.550Z,17.45
2022-12-12T11:35:03.484Z,17.30
2022-12-12T11:37:54.471Z,17.08
2022-12-12T11:40:34.827Z,16.67
2022-12-12T11:43:29.788Z,16.52
2022-12-12T11:46:15.031Z,17.77
2022-12-12T11:48:53.855Z,17.63
2022-12-12T11:51:40.120Z,17.05
2022-12-12T11:54:22.241Z,16.63
2022-12-12T11:57:39.483Z,16.90
2022-12-12T12:00:22.537Z,14.77
2022-12-12T12:03:21.374Z,16.65
2022-12-12T12:06:13.874Z,16.58
2022-12-12T12:09:05.403Z,16.25
2022-12-12T12:11:53.612Z,16.10
2022-12-12T12:15:15.673Z,16.80
2022-12-12T12:18:30.776Z,16.15
2022-12-12T12:21:28.657Z,17.08
2022-12-12T12:24:23.022Z,16.63
2022-12-12T12:27:13.677Z,16.15
2022-12-12T12:30:25.575Z,16.42
2022-12-12T12:33:21.129Z,16.15
2022-12-12T12:36:20.681Z,15.63
2022-12-12T12:39:35.330Z,16.67
2022-12-12T12:42:20.178Z,15.85
2022-12-12T12:45:20.409Z,15.70
2022-12-12T12:48:10.186Z,15.93
2022-12-12T12:50:57.939Z,15.57
2022-12-12T12:53:43.478Z,15.90
2022-12-12T12:56:36.733Z,16.48
2022-12-12T12:59:24.481Z,14.50
2022-12-12T13:01:53.818Z,14.75
2022-12-12T13:04:29.179Z,15.52
2022-12-12T13:07:05.695Z,14.57
2022-12-12T13:09:52.269Z,16.20
2022-12-12T13:12:46.691Z,14.90
2022-12-12T13:15:22.220Z,15.45
2022-12-12T13:17:58.080Z,15.00
2022-12-12T13:20:26.950Z,15.43
2022-12-12T13:23:21.689Z,14.50
2022-12-12T13:26:25.689Z,15.07
2022-12-12T13:29:04.030Z,14.70
2022-12-12T13:32:09.013Z,15.60
2022-12-12T13:34:45.867Z,15.48
2022-12-12T13:37:20.549Z,15.40
2022-12-12T13:40:01.267Z,14.90
2022-12-12T13:42:57.139Z,14.50
2022-12-12T13:45:35.791Z,14.43
2022-12-12T13:48:09.439Z,15.57
2022-12-12T13:50:36.410Z,14.85
2022-12-12T13:53:06.315Z,15.23
2022-12-12T13:55:35.112Z,14.00
2022-12-12T13:58:08.202Z,14.57
2022-12-12T14:00:37.401Z,13.80
2022-12-12T14:03:10.519Z,13.90
2022-12-12T14:06:11.658Z,14.18
2022-12-12T14:08:48.229Z,14.13
2022-12-12T14:11:32.934Z,13.85
2022-12-12T14:14:22.563Z,14.23
2022-12-12T14:16:56.296Z,14.52
2022-12-12T14:19:33.706Z,13.40
2022-12-12T14:22:01.593Z,14.07
2022-12-12T14:24:34.657Z,14.75
2022-12-12T14:27:07.297Z,13.55
2022-12-12T14:29:45.362Z,13.50
2022-12-12T14:32:12.131Z,13.23
2022-12-12T14:34:52.432Z,12.88
2022-12-12T14:37:54.286Z,13.50
2022-12-12T14:40:28.030Z,13.70
2022-12-12T14:43:19.776Z,13.35
2022-12-12T14:45:51.226Z,14.43
2022-12-12T14:48:24.200Z,13.70
2022-12-12T14:51:11.821Z,13.13
2022-12-12T14:53:38.587Z,12.77
2022-12-12T14:56:47.636Z,12.38
2022-12-12T14:59:44.864Z,13.43
2022-12-12T15:02:33.864Z,13.00
2022-12-12T15:05:07.339Z,13.23
2022-12-12T15:07:38.487Z,13.90
2022-12-12T15:10:28.197Z,13.52
2022-12-12T15:12:55.291Z,13.65
2022-12-12T15:15:27.475Z,13.80
2022-12-12T15:17:58.714Z,13.88
2022-12-12T15:20:30.732Z,13.52
2022-12-12T15:23:02.434Z,13.55
2022-12-12T15:25:46.168Z,14.48
2022-12-12T15:28:20.245Z,14.93
2022-12-12T15:30:53.140Z,14.32
2022-12-12T15:33:22.338Z,14.02
2022-12-12T15:36:01.465Z,13.93
2022-12-12T15:38:30.053Z,14.38
2022-12-12T15:41:08.160Z,13.68
2022-12-12T15:43:42.976Z,13.38
2022-12-12T15:46:15.687Z,14.25
2022-12-12T15:48:52.262Z,13.57
2022-12-12T15:51:24.667Z,14.13
2022-12-12T15:53:55.354Z,14.45
2022-12-12T15:56:23.466Z,14.30
2022-12-12T15:59:09.514Z,15.93
2022-12-12T16:01:36.662Z,20.50
2022-12-12T16:04:22.450Z,23.48
2022-12-12T16:06:50.052Z,22.60
2022-12-12T16:09:23.971Z,21.42
2022-12-12T16:11:58.790Z,19.90
2022-12-12T16:14:42.554Z,20.55
2022-12-12T16:17:25.351Z,19.73
2022-12-12T16:20:03.691Z,19.27
2022-12-12T16:22:33.539Z,18.33
2022-12-12T16:25:23.314Z,16.83
2022-12-12T16:28:05.320Z,16.58
2022-12-12T16:30:33.127Z,17.52
2022-12-12T16:33:34.202Z,16.88
2022-12-12T16:36:11.940Z,15.63
2022-12-12T16:38:40.389Z,15.75
2022-12-12T16:41:14.267Z,15.52
2022-12-12T16:43:42.068Z,14.85
2022-12-12T16:46:24.661Z,16.00
2022-12-12T16:48:52.500Z,16.40
2022-12-12T16:51:28.938Z,18.55
2022-12-12T16:53:56.735Z,18.58
2022-12-12T16:56:24.728Z,17.48
2022-12-12T16:58:53.197Z,17.67
2022-12-12T17:01:21.186Z,18.00
2022-12-12T17:03:48.164Z,17.77
2022-12-12T17:06:15.043Z,19.80
2022-12-12T17:08:41.810Z,19.52
2022-12-12T17:11:11.059Z,18.98
2022-12-12T17:13:49.911Z,18.88
2022-12-12T17:16:20.298Z,19.02
2022-12-12T17:18:49.576Z,20.15
2022-12-12T17:21:16.424Z,20.08
2022-12-12T17:23:43.246Z,22.02
2022-12-12T17:26:11.371Z,20.38
2022-12-12T17:28:38.259Z,19.83
2022-12-12T17:31:09.458Z,24.17
2022-12-12T17:33:45.852Z,21.45
2022-12-12T17:36:17.658Z,19.50
2022-12-12T17:38:44.569Z,19.83
2022-12-12T17:41:12.696Z,19.50
2022-12-12T17:43:41.357Z,17.67
2022-12-12T17:46:15.013Z,18.65
2022-12-12T17:48:46.675Z,18.98
2022-12-12T17:51:18.193Z,19.05
2022-12-12T17:53:45.466Z,18.35
2022-12-12T17:56:16.750Z,20.17
2022-12-12T17:58:46.181Z,21.45
2022-12-12T18:01:21.404Z,23.15
2022-12-12T18:03:49.671Z,23.60
2022-12-12T18:06:18.692Z,23.67
2022-12-12T18:08:46.836Z,20.50
2022-12-12T18:11:19.506Z,19.08
2022-12-12T18:13:50.436Z,17.50
2022-12-12T18:16:18.373Z,16.05
2022-12-12T18:18:45.288Z,16.30
2022-12-12T18:21:42.824Z,15.93
2022-12-12T18:24:04.172Z,15.50
2022-12-12T18:26:31.240Z,14.40
2022-12-12T18:29:01.901Z,15.75
2022-12-12T18:31:30.182Z,15.35
2022-12-12T18:33:57.481Z,15.65
2022-12-12T18:36:28.240Z,16.13
2022-12-12T18:38:56.533Z,16.55
2022-12-12T18:41:24.340Z,16.75
2022-12-12T18:43:51.234Z,16.58
2022-12-12T18:46:22.273Z,18.00
2022-12-12T18:48:49.612Z,17.15
2022-12-12T18:51:23.813Z,19.10
2022-12-12T18:53:53.881Z,18.08
2022-12-12T18:56:25.513Z,18.48
2022-12-12T18:58:54.338Z,19.23
2022-12-12T19:01:26.794Z,18.17
2022-12-12T19:03:58.872Z,18.88
2022-12-12T19:06:36.643Z,18.77
2022-12-12T19:09:15.471Z,16.95
2022-12-12T19:11:43.774Z,15.35
2022-12-12T19:14:14.082Z,15.20
2022-12-12T19:16:43.234Z,16.25
2022-12-12T19:19:12.090Z,16.40
2022-12-12T19:21:41.809Z,16.02
2022-12-12T19:24:11.952Z,15.57
2022-12-12T19:26:44.357Z,14.68
2022-12-12T19:29:15.458Z,14.95
2022-12-12T19:31:43.063Z,15.77
2022-12-12T19:34:12.930Z,14.68
2022-12-12T19:36:40.498Z,14.82
2022-12-12T19:39:08.808Z,15.65
2022-12-12T19:41:36.362Z,17.52
2022-12-12T19:44:04.618Z,18.65
2022-12-12T19:46:33.045Z,18.80
2022-12-12T19:49:04.625Z,19.15
2022-12-12T19:51:32.913Z,19.70
2022-12-12T19:54:00.636Z,18.83
2022-12-12T19:56:31.526Z,21.45
2022-12-12T19:58:59.894Z,19.15
2022-12-12T20:01:31.035Z,20.33
2022-12-12T20:04:02.910Z,20.20
2022-12-12T20:06:29.954Z,20.30
2022-12-12T20:09:00.036Z,20.05
2022-12-12T20:11:27.471Z,19.75
2022-12-12T20:13:57.046Z,18.77
2022-12-12T20:16:28.732Z,18.33
2022-12-12T20:18:56.926Z,18.17
2022-12-12T20:21:59.799Z,19.10
2022-12-12T20:24:17.642Z,22.77
2022-12-12T20:26:45.529Z,23.92
2022-12-12T20:29:14.399Z,26.25
2022-12-12T20:31:45.442Z,24.55
2022-12-12T20:34:14.870Z,25.15
2022-12-12T20:36:44.078Z,24.00
2022-12-12T20:39:19.275Z,24.30
2022-12-12T20:41:46.381Z,23.23
2022-12-12T20:44:14.373Z,22.55
2022-12-12T20:46:44.747Z,22.08
2022-12-12T20:49:19.338Z,22.85
2022-12-12T20:51:55.824Z,22.35
2022-12-12T20:54:24.443Z,21.88
2022-12-12T20:56:53.291Z,22.02
2022-12-12T20:59:20.213Z,22.67
2022-12-12T21:01:47.562Z,21.73
2022-12-12T21:04:15.586Z,21.60
2022-12-12T21:06:48.182Z,21.48
2022-12-12T21:09:23.757Z,20.35
2022-12-12T21:11:57.973Z,20.63
2022-12-12T21:14:27.144Z,20.92
2022-12-12T21:16:54.600Z,20.35
2022-12-12T21:19:23.123Z,20.73
2022-12-12T21:21:50.583Z,19.38
2022-12-12T21:24:18.696Z,19.23
2022-12-12T21:26:47.006Z,18.85
2022-12-12T21:29:15.309Z,20.33
2022-12-12T21:31:50.394Z,20.88
2022-12-12T21:34:21.614Z,18.60
2022-12-12T21:36:52.633Z,19.27
2022-12-12T21:39:21.952Z,18.65
2022-12-12T21:41:48.862Z,19.95
2022-12-12T21:44:15.708Z,19.33
2022-12-12T21:46:44.169Z,18.27
2022-12-12T21:49:27.652Z,17.65
2022-12-12T21:52:09.984Z,17.55
2022-12-12T21:54:36.920Z,17.35
2022-12-12T21:57:04.218Z,17.67
2022-12-12T21:59:31.051Z,18.73
2022-12-12T22:02:00.399Z,17.45
2022-12-12T22:04:27.814Z,17.52
2022-12-12T22:06:57.008Z,19.02
2022-12-12T22:09:24.566Z,17.30
2022-12-12T22:11:52.476Z,16.85
2022-12-12T22:14:30.831Z,17.90
2022-12-12T22:16:57.600Z,17.55
2022-12-12T22:19:24.879Z,16.15
2022-12-12T22:21:51.851Z,17.77
2022-12-12T22:24:18.979Z,17.88
2022-12-12T22:26:49.162Z,17.52
2022-12-12T22:29:20.139Z,17.35
2022-12-12T22:31:49.882Z,18.42
2022-12-12T22:34:21.860Z,16.02
2022-12-12T22:36:49.027Z,17.05
2022-12-12T22:39:19.613Z,16.83
2022-12-12T22:41:46.758Z,17.70
2022-12-12T22:44:16.929Z,17.92
2022-12-12T22:46:46.389Z,17.90
2022-12-12T22:49:16.802Z,17.70
2022-12-12T22:51:44.640Z,17.23
2022-12-12T22:54:12.154Z,17.30
2022-12-12T22:56:40.660Z,16.75
2022-12-12T22:59:10.654Z,17.25
2022-12-12T23:01:37.543Z,18.63
2022-12-12T23:04:04.641Z,19.25
2022-12-12T23:06:35.340Z,19.95
2022-12-12T23:09:21.918Z,21.55
2022-12-12T23:11:49.238Z,21.45
2022-12-12T23:14:21.538Z,21.35
2022-12-12T23:16:50.522Z,20.27
2022-12-12T23:19:21.658Z,19.85
2022-12-12T23:21:48.519Z,20.25
2022-12-12T23:24:15.485Z,18.48
2022-12-12T23:26:43.322Z,18.25
2022-12-12T23:29:16.176Z,15.85
2022-12-12T23:31:43.484Z,15.38
2022-12-12T23:34:20.481Z,16.00
2022-12-12T23:36:47.864Z,14.98
2022-12-12T23:39:15.566Z,14.63
2022-12-12T23:41:44.129Z,15.68
2022-12-12T23:44:15.170Z,14.68
2022-12-12T23:46:42.681Z,14.52
2022-12-12T23:49:21.405Z,15.23
2022-12-12T23:51:58.189Z,14.02
2022-12-12T23:54:32.394Z,15.35
2022-12-12T23:57:00.272Z,14.93
2022-12-12T23:59:27.496Z,14.07
